Time;durP1;ratioP1;P1;durP2;ratioP2;P2;SDS_P1;SDS_P2;PMS_P1;PMS_P2;Temp;Humidity;BMP_temperature;BMP_pressure;BME280_temperature;BME280_humidity;BME280_pressure;Samples;Min_cycle;Max_cycle;Signal;HPM_P1;HPM_P2
2021/06/09 00:08:02;;;;;;;;;2.00;2.00;;;;;21.94;41.96;101497.69;5099861;27;45745;-82
2021/06/09 00:10:27;;;;;;;;;3.00;3.00;;;;;21.95;41.94;101506.53;5099061;27;45739;-84
2021/06/09 00:12:53;;;;;;;;;2.75;2.75;;;;;21.84;42.01;101490.78;5097694;27;45676;-84
2021/06/09 00:15:18;;;;;;;;;2.00;2.00;;;;;21.73;41.83;101475.88;5080878;27;48777;-85
2021/06/09 00:17:44;;;;;;;;;4.00;4.00;;;;;21.74;41.61;101481.06;5097544;27;45411;-84
2021/06/09 00:20:15;;;;;;;;;4.00;3.75;;;;;21.70;42.03;101482.34;5099103;27;45783;-88
2021/06/09 00:22:40;;;;;;;;;4.00;3.50;;;;;21.84;41.84;101506.78;5097610;27;45557;-85
2021/06/09 00:25:13;;;;;;;;;3.00;3.00;;;;;21.73;41.82;101492.72;5098814;27;45459;-86
2021/06/09 00:27:39;;;;;;;;;3.25;3.25;;;;;21.62;41.97;101469.00;5098286;27;46199;-86
2021/06/09 00:30:06;;;;;;;;;4.00;4.00;;;;;21.84;42.06;101502.28;5100880;27;45605;-88
2021/06/09 00:32:31;;;;;;;;;4.00;4.00;;;;;21.84;42.30;101512.13;5100059;27;45509;-88
2021/06/09 00:34:56;;;;;;;;;4.00;4.00;;;;;21.82;41.89;101512.25;5097448;27;46445;-88
2021/06/09 00:37:22;;;;;;;;;6.25;4.25;;;;;21.81;42.31;101509.78;5098636;27;45460;-87
2021/06/09 00:39:48;;;;;;;;;4.00;4.00;;;;;21.72;42.53;101504.38;5099314;27;45573;-89
2021/06/09 00:42:19;;;;;;;;;4.00;4.00;;;;;21.73;42.60;101495.41;5103334;27;45688;-86
2021/06/09 00:44:47;;;;;;;;;5.00;4.50;;;;;21.72;42.75;101504.38;5106838;27;46326;-84
2021/06/09 00:47:19;;;;;;;;;4.75;4.00;;;;;21.65;42.64;101495.34;5088542;27;47203;-84
2021/06/09 00:49:44;;;;;;;;;4.00;4.00;;;;;21.53;42.49;101487.78;5109761;27;45593;-82
2021/06/09 00:52:09;;;;;;;;;5.00;4.00;;;;;21.49;42.64;101471.25;5108165;27;45502;-85
2021/06/09 00:54:35;;;;;;;;;4.25;4.00;;;;;21.58;42.98;101504.16;5106435;27;45578;-84
2021/06/09 00:57:01;;;;;;;;;3.00;3.00;;;;;21.41;42.72;101468.56;5107555;27;45479;-87
2021/06/09 00:59:27;;;;;;;;;4.00;4.00;;;;;21.38;42.92;101457.38;5107613;27;45638;-88
2021/06/09 01:01:52;;;;;;;;;4.00;4.00;;;;;21.63;42.55;101505.34;5105676;27;45521;-84
2021/06/09 01:07:39;;;;;;;;;4.50;4.50;;;;;21.62;43.42;101495.66;5105910;27;45722;-87
2021/06/09 01:10:06;;;;;;;;;4.00;4.00;;;;;21.47;43.01;101475.94;5103419;27;45604;-82
2021/06/09 01:12:32;;;;;;;;;5.25;4.25;;;;;21.36;43.24;101449.53;5102889;27;45538;-87
2021/06/09 01:14:58;;;;;;;;;4.00;4.00;;;;;21.60;43.18;101486.97;5083403;27;47529;-81
2021/06/09 01:17:23;;;;;;;;;6.00;5.50;;;;;21.60;43.08;101488.81;5101915;27;45496;-82
2021/06/09 01:23:10;;;;;;;;;4.75;4.00;;;;;21.47;43.35;101461.75;5101278;27;45577;-85
2021/06/09 01:25:36;;;;;;;;;6.00;4.25;;;;;21.38;43.27;101444.84;5103512;27;46620;-84
2021/06/09 01:28:04;;;;;;;;;4.75;4.75;;;;;21.57;43.63;101486.47;5102469;27;45585;-85
2021/06/09 01:30:30;;;;;;;;;5.50;4.75;;;;;21.51;43.57;101469.28;5083158;27;45657;-85
2021/06/09 01:32:56;;;;;;;;;6.00;6.00;;;;;21.56;43.22;101479.47;5100176;27;45622;-83
2021/06/09 01:35:22;;;;;;;;;5.75;4.75;;;;;21.40;43.11;101456.22;5096115;27;45711;-83
2021/06/09 01:37:48;;;;;;;;;4.75;3.75;;;;;21.55;43.35;101481.28;5076870;27;48494;-83
2021/06/09 01:40:17;;;;;;;;;6.25;5.00;;;;;21.55;43.36;101480.44;5098523;27;45786;-84
2021/06/09 01:42:43;;;;;;;;;4.00;4.00;;;;;21.46;43.48;101470.75;5100114;27;45668;-85
2021/06/09 01:45:12;;;;;;;;;4.75;4.75;;;;;21.35;43.26;101455.84;5098880;27;45662;-86
2021/06/09 01:47:38;;;;;;;;;4.00;3.25;;;;;21.40;43.41;101474.88;5100414;27;45980;-82
2021/06/09 01:53:25;;;;;;;;;4.25;4.25;;;;;21.46;43.24;101481.41;5098987;27;45620;-85
2021/06/09 01:55:51;;;;;;;;;3.25;3.25;;;;;21.44;43.50;101480.72;5099019;27;45660;-88
2021/06/09 01:58:17;;;;;;;;;4.00;3.00;;;;;21.41;43.41;101481.06;5080244;27;48382;-85
2021/06/09 02:00:47;;;;;;;;;4.25;3.75;;;;;21.40;43.24;101482.03;5099128;27;45683;-85
2021/06/09 02:03:14;;;;;;;;;3.50;3.25;;;;;21.38;43.43;101481.38;5099921;27;45771;-86
2021/06/09 02:05:40;;;;;;;;;4.00;4.00;;;;;21.34;43.56;101476.34;5098870;27;46357;-83
2021/06/09 02:08:08;;;;;;;;;3.50;3.00;;;;;21.13;43.10;101445.69;5100083;27;45695;-82
2021/06/09 02:10:35;;;;;;;;;4.00;3.00;;;;;21.31;43.36;101475.84;5099435;27;45604;-86
2021/06/09 02:13:04;;;;;;;;;3.50;3.50;;;;;21.29;43.15;101472.47;5098720;27;45493;-82
2021/06/09 02:15:30;;;;;;;;;5.50;5.00;;;;;21.27;43.63;101472.63;5098531;27;45736;-85
2021/06/09 02:18:07;;;;;;;;;3.00;3.00;;;;;21.24;43.02;101475.63;5098280;27;46365;-84
2021/06/09 02:23:54;;;;;;;;;4.75;4.50;;;;;21.12;43.15;101468.84;5085151;27;45602;-85
2021/06/09 02:26:20;;;;;;;;;4.00;4.00;;;;;21.17;43.22;101471.06;5058878;28;46894;-83
2021/06/09 02:28:45;;;;;;;;;5.00;4.00;;;;;21.16;43.34;101485.41;5077949;28;46402;-85
2021/06/09 02:31:16;;;;;;;;;4.75;4.00;;;;;21.00;43.10;101442.63;5078189;28;45653;-85
2021/06/09 02:33:42;;;;;;;;;5.00;5.00;;;;;21.11;43.26;101467.16;5077749;28;45536;-85
2021/06/09 02:36:08;;;;;;;;;4.25;4.25;;;;;21.10;43.17;101464.66;5059845;28;48647;-85
2021/06/09 02:38:39;;;;;;;;;3.00;3.00;;;;;21.10;43.21;101470.00;5077552;28;45715;-86
2021/06/09 02:41:05;;;;;;;;;4.00;4.00;;;;;20.95;43.17;101448.38;5060144;28;45764;-85
2021/06/09 02:43:33;;;;;;;;;3.00;3.00;;;;;20.91;43.49;101450.53;5077275;28;45512;-84
2021/06/09 02:46:13;;;;;;;;;5.25;4.25;;;;;20.89;43.17;101443.72;5076789;28;46757;-83
2021/06/09 02:48:44;;;;;;;;;6.00;6.00;;;;;20.96;43.57;101447.41;5077901;28;45644;-84
2021/06/09 02:51:16;;;;;;;;;5.00;4.75;;;;;20.97;43.99;101456.25;5076785;28;45494;-84
2021/06/09 02:53:50;;;;;;;;;9.00;9.00;;;;;20.78;44.69;101436.78;5077989;28;45629;-85
2021/06/09 02:56:51;;;;;;;;;7.25;6.75;;;;;20.96;44.63;101471.38;5079328;28;46595;-83
2021/06/09 02:59:41;;;;;;;;;7.00;7.00;;;;;20.92;44.69;101468.19;5010703;28;46099;-85
2021/06/09 03:02:21;;;;;;;;;9.00;8.00;;;;;20.88;44.64;101479.31;5015280;28;45606;-85
2021/06/09 03:05:08;;;;;;;;;8.75;7.50;;;;;20.69;44.93;101450.19;5014522;28;46035;-88
2021/06/09 03:08:02;;;;;;;;;7.00;6.25;;;;;20.79;45.41;101470.41;5015465;28;47923;-86
2021/06/09 03:10:33;;;;;;;;;7.00;6.25;;;;;20.75;45.19;101477.03;4936815;28;45773;-86
2021/06/09 03:13:06;;;;;;;;;10.00;7.00;;;;;20.71;45.51;101473.03;4936746;28;45829;-86
2021/06/09 03:15:45;;;;;;;;;8.00;7.25;;;;;20.54;45.81;101447.25;4937330;28;45686;-85
2021/06/09 03:18:10;;;;;;;;;7.00;7.00;;;;;20.67;45.73;101474.31;4936288;28;45674;-82
2021/06/09 03:20:52;;;;;;;;;7.75;7.75;;;;;20.39;46.29;101438.97;4936266;28;45787;-85
2021/06/09 03:23:41;;;;;;;;;8.25;8.00;;;;;20.55;46.40;101467.56;4942508;28;45834;-85
2021/06/09 03:26:42;;;;;;;;;17.50;16.75;;;;;20.52;46.62;101468.69;4954528;28;45903;-82
2021/06/09 03:29:16;;;;;;;;;9.75;9.00;;;;;20.40;46.64;101466.41;4954493;28;45597;-83
2021/06/09 03:31:49;;;;;;;;;8.00;7.00;;;;;20.41;46.58;101470.72;4954303;28;47604;-83
2021/06/09 03:37:42;;;;;;;;;8.50;8.00;;;;;20.29;47.53;101471.94;5011911;28;45708;-85
2021/06/09 03:40:14;;;;;;;;;6.75;6.75;;;;;20.11;47.69;101454.09;5013682;28;46645;-83
2021/06/09 03:42:46;;;;;;;;;7.50;7.50;;;;;20.22;47.55;101479.66;5013463;28;46258;-82
2021/06/09 03:45:13;;;;;;;;;7.75;7.25;;;;;19.78;47.69;101422.81;4996802;28;45618;-84
2021/06/09 03:47:40;;;;;;;;;7.00;7.00;;;;;19.95;47.48;101453.09;5060754;27;45678;-84
2021/06/09 03:53:28;;;;;;;;;9.00;7.25;;;;;19.83;47.85;101454.28;5096254;27;45664;-83
2021/06/09 03:55:57;;;;;;;;;8.50;8.50;;;;;19.92;47.87;101475.50;5078539;27;45739;-81
2021/06/09 03:58:26;;;;;;;;;7.00;7.00;;;;;19.86;48.29;101465.47;5096913;27;45754;-82
2021/06/09 04:00:54;;;;;;;;;9.75;8.25;;;;;19.67;48.47;101433.63;5079688;27;48715;-84
2021/06/09 04:03:20;;;;;;;;;8.50;7.00;;;;;19.72;48.04;101452.66;5078380;27;47430;-84
2021/06/09 04:09:11;;;;;;;;;7.75;7.75;;;;;19.76;48.63;101458.53;5099503;27;45698;-84
2021/06/09 04:11:57;;;;;;;;;8.50;6.50;;;;;19.82;48.76;101464.06;5099757;27;45663;-85
2021/06/09 04:14:42;;;;;;;;;8.00;7.75;;;;;19.52;48.39;101419.16;5081821;27;46756;-85
2021/06/09 04:17:12;;;;;;;;;7.75;7.25;;;;;19.77;48.55;101473.47;5101881;27;45615;-83
2021/06/09 04:19:45;;;;;;;;;7.25;7.00;;;;;19.72;48.91;101489.88;5104432;27;45782;-83
2021/06/09 04:22:11;;;;;;;;;6.00;6.00;;;;;19.68;48.93;101473.38;5086536;27;47661;-85
2021/06/09 04:24:39;;;;;;;;;8.25;7.00;;;;;19.36;48.96;101425.06;5085953;27;47115;-84
2021/06/09 04:27:12;;;;;;;;;6.00;6.00;;;;;19.62;49.21;101481.94;5104675;27;45488;-83
2021/06/09 04:29:39;;;;;;;;;6.75;6.50;;;;;19.54;49.17;101462.41;5102490;27;45595;-84
2021/06/09 04:32:07;;;;;;;;;6.25;6.25;;;;;19.50;48.80;101459.19;5099643;27;45661;-83
2021/06/09 04:34:54;;;;;;;;;7.50;7.00;;;;;19.26;49.13;101429.59;5101554;27;46438;-84
2021/06/09 04:37:23;;;;;;;;;6.50;6.50;;;;;19.19;48.64;101413.38;5096895;27;45671;-84
2021/06/09 04:39:49;;;;;;;;;7.75;7.75;;;;;19.24;49.07;101429.72;5098694;27;45709;-83
2021/06/09 04:42:16;;;;;;;;;7.75;7.25;;;;;19.53;48.96;101476.66;5098154;27;46549;-85
2021/06/09 04:44:43;;;;;;;;;9.75;7.75;;;;;19.52;49.14;101480.31;5097895;27;45920;-83
2021/06/09 04:47:09;;;;;;;;;6.75;6.75;;;;;19.53;49.11;101479.31;5097462;27;45655;-85
2021/06/09 04:55:46;;;;;;;;;8.50;8.50;;;;;19.48;49.50;101494.88;5096448;27;45760;-84
2021/06/09 04:58:14;;;;;;;;;7.00;7.00;;;;;19.19;49.28;101445.25;5096593;27;45693;-84
2021/06/09 05:00:41;;;;;;;;;9.00;8.00;;;;;19.25;49.66;101457.13;5096136;27;45669;-85
2021/06/09 05:03:06;;;;;;;;;9.00;8.00;;;;;19.32;49.17;101465.38;5096174;27;46579;-85
2021/06/09 05:05:32;;;;;;;;;8.50;8.50;;;;;19.46;49.63;101491.50;5095013;27;46120;-83
2021/06/09 05:07:57;;;;;;;;;7.50;7.00;;;;;19.52;49.64;101490.94;5096141;27;45678;-83
2021/06/09 05:10:23;;;;;;;;;9.00;7.50;;;;;19.29;49.44;101461.19;5095298;27;45570;-82
2021/06/09 05:13:02;;;;;;;;;10.50;8.75;;;;;19.52;49.62;101490.94;5095098;27;45547;-84
2021/06/09 05:15:30;;;;;;;;;8.00;7.50;;;;;19.50;50.05;101495.53;5099742;27;46397;-84
2021/06/09 05:17:55;;;;;;;;;11.50;10.25;;;;;19.39;49.50;101477.09;5099381;27;45803;-84
2021/06/09 05:20:27;;;;;;;;;10.25;9.00;;;;;19.45;49.67;101479.19;5100266;27;45605;-83
2021/06/09 05:23:05;;;;;;;;;8.75;7.00;;;;;19.54;50.13;101503.09;5098726;27;46555;-84
2021/06/09 05:25:32;;;;;;;;;8.25;8.25;;;;;19.37;49.63;101465.78;5099184;27;46559;-84
2021/06/09 05:27:59;;;;;;;;;8.25;8.25;;;;;19.53;49.98;101493.47;5098991;27;45837;-82
2021/06/09 05:30:26;;;;;;;;;11.50;10.50;;;;;19.50;49.84;101480.44;5098364;27;45556;-84
2021/06/09 05:32:54;;;;;;;;;9.25;8.50;;;;;19.22;50.10;101426.38;5098355;27;45553;-84
2021/06/09 05:35:21;;;;;;;;;12.00;11.25;;;;;19.43;50.13;101457.22;5098429;27;46063;-85
2021/06/09 05:37:47;;;;;;;;;11.25;10.75;;;;;19.58;49.63;101482.38;5079874;27;45654;-85
2021/06/09 05:40:16;;;;;;;;;11.50;10.25;;;;;19.52;49.80;101470.50;5080285;27;45709;-83
2021/06/09 05:42:42;;;;;;;;;9.00;8.75;;;;;19.58;50.26;101474.41;5098263;27;45863;-84
2021/06/09 05:45:08;;;;;;;;;8.25;8.25;;;;;19.62;50.42;101475.78;5099579;27;46516;-84
2021/06/09 05:47:45;;;;;;;;;11.00;10.50;;;;;19.55;50.08;101464.06;5080483;27;45736;-83
2021/06/09 05:56:54;;;;;;;;;11.50;11.00;;;;;19.69;49.84;101468.91;5097563;27;46108;-80
2021/06/09 05:59:19;;;;;;;;;10.75;10.25;;;;;19.76;49.89;101477.13;5097856;27;45633;-84
2021/06/09 06:01:45;;;;;;;;;13.50;12.25;;;;;19.68;50.17;101470.72;5098807;27;45548;-84
2021/06/09 06:04:11;;;;;;;;;11.25;9.75;;;;;19.63;50.25;101454.38;5079908;27;47870;-83
2021/06/09 06:06:38;;;;;;;;;14.50;14.00;;;;;19.85;49.66;101490.38;5098741;27;46153;-84
2021/06/09 06:09:04;;;;;;;;;11.00;10.25;;;;;19.87;50.28;101479.56;5081659;27;45706;-83
2021/06/09 06:11:30;;;;;;;;;12.75;12.50;;;;;19.99;49.83;101503.19;5097807;27;45933;-85
2021/06/09 06:13:56;;;;;;;;;13.75;12.75;;;;;19.87;49.98;101482.22;5097951;27;46439;-84
2021/06/09 06:16:21;;;;;;;;;10.75;10.75;;;;;19.91;50.15;101484.47;5098191;27;46039;-83
2021/06/09 06:18:49;;;;;;;;;12.75;12.75;;;;;19.86;49.98;101470.78;5098097;27;45632;-85
2021/06/09 06:21:17;;;;;;;;;11.25;10.50;;;;;20.15;49.98;101504.34;5079761;27;45907;-83
2021/06/09 06:23:43;;;;;;;;;13.50;13.25;;;;;20.00;49.94;101477.41;5079183;27;47717;-84
2021/06/09 06:26:10;;;;;;;;;15.00;12.50;;;;;20.02;50.20;101470.13;5098212;27;45932;-85
2021/06/09 06:28:39;;;;;;;;;12.25;11.25;;;;;20.07;49.94;101466.03;5098804;27;45781;-83
2021/06/09 06:31:11;;;;;;;;;14.00;11.50;;;;;20.33;49.97;101498.13;5080289;27;45636;-85
2021/06/09 06:33:38;;;;;;;;;28.25;24.50;;;;;20.39;50.26;101500.19;5097811;27;45551;-84
2021/06/09 06:36:04;;;;;;;;;18.50;17.75;;;;;20.27;49.67;101465.91;5097501;27;46069;-84
2021/06/09 06:38:30;;;;;;;;;21.25;19.00;;;;;20.28;49.35;101464.94;5098123;27;45525;-85
2021/06/09 06:40:57;;;;;;;;;27.00;22.50;;;;;20.39;49.59;101476.22;5098682;27;45625;-84
2021/06/09 06:43:22;;;;;;;;;20.50;20.50;;;;;20.56;49.91;101489.69;5099382;27;46579;-85
2021/06/09 06:45:48;;;;;;;;;23.75;19.75;;;;;20.56;49.60;101490.53;5081289;27;47454;-84
2021/06/09 06:48:15;;;;;;;;;21.50;20.75;;;;;20.44;49.46;101459.78;5101476;27;45517;-83
2021/06/09 06:50:43;;;;;;;;;21.75;18.75;;;;;20.73;49.63;101487.00;5102601;27;45649;-83
2021/06/09 06:56:34;;;;;;;;;22.00;21.50;;;;;20.87;49.65;101497.13;5106647;27;46099;-81
2021/06/09 06:58:59;;;;;;;;;21.00;19.50;;;;;20.91;49.28;101500.31;5109524;27;45440;-84
2021/06/09 07:01:31;;;;;;;;;23.00;22.25;;;;;20.96;49.27;101492.69;5107926;27;45477;-83
2021/06/09 07:03:57;;;;;;;;;21.50;20.25;;;;;21.01;49.33;101502.88;5105993;27;45519;-81
2021/06/09 07:06:23;;;;;;;;;26.50;24.00;;;;;21.06;49.86;101492.59;5107926;27;45427;-87
2021/06/09 07:08:49;;;;;;;;;23.50;21.50;;;;;21.09;49.08;101502.97;5088003;27;45673;-83
2021/06/09 07:11:17;;;;;;;;;25.75;21.25;;;;;21.16;49.24;101504.06;5104646;27;45727;-85
2021/06/09 07:13:46;;;;;;;;;31.25;27.00;;;;;21.07;49.18;101489.78;5105856;27;46714;-82
2021/06/09 07:16:13;;;;;;;;;21.75;21.25;;;;;21.25;49.03;101503.13;5104219;27;45608;-81
2021/06/09 07:18:46;;;;;;;;;23.25;22.25;;;;;21.29;48.77;101507.97;5107399;27;45593;-87
2021/06/09 07:21:21;;;;;;;;;24.50;24.25;;;;;21.34;48.96;101503.00;5095034;27;45447;-85
2021/06/09 07:23:46;;;;;;;;;25.75;25.25;;;;;21.40;48.84;101506.88;5090665;27;47596;-82
2021/06/09 07:26:14;;;;;;;;;32.00;30.75;;;;;21.15;49.12;101454.41;5106821;27;45569;-85
2021/06/09 07:28:45;;;;;;;;;29.25;26.25;;;;;21.27;49.19;101466.44;5087907;27;46072;-83
2021/06/09 07:31:14;;;;;;;;;31.50;30.75;;;;;21.47;48.79;101502.59;5085036;27;45600;-84
2021/06/09 07:33:40;;;;;;;;;30.50;29.75;;;;;21.59;49.08;101503.16;5101269;27;46495;-85
2021/06/09 07:42:17;;;;;;;;;34.00;30.25;;;;;21.49;48.92;101463.25;5097195;27;45554;-84
2021/06/09 07:44:51;;;;;;;;;31.00;28.75;;;;;21.65;48.47;101486.50;5096921;27;45712;-83
2021/06/09 07:47:18;;;;;;;;;33.00;30.75;;;;;21.75;48.45;101496.06;5097103;27;46559;-82
2021/06/09 07:49:47;;;;;;;;;31.50;30.00;;;;;21.69;48.20;101477.22;5099624;27;45639;-84
2021/06/09 07:52:14;;;;;;;;;34.00;29.75;;;;;21.78;48.29;101484.25;5082839;27;45922;-82
2021/06/09 07:54:41;;;;;;;;;38.75;32.00;;;;;21.91;48.58;101497.16;5083529;27;48229;-84
2021/06/09 07:57:10;;;;;;;;;29.50;28.50;;;;;21.99;48.61;101503.38;5102551;27;46088;-83
2021/06/09 07:59:36;;;;;;;;;28.25;27.00;;;;;21.97;47.98;101500.00;5100589;27;45677;-81
2021/06/09 08:02:02;;;;;;;;;25.50;24.00;;;;;22.04;48.48;101497.53;5096399;27;45683;-81
2021/06/09 08:04:29;;;;;;;;;29.25;25.75;;;;;22.16;48.18;101512.28;5096097;27;47669;-84
2021/06/09 08:06:54;;;;;;;;;27.25;26.75;;;;;22.21;47.95;101507.28;5077569;27;47507;-83
2021/06/09 08:09:20;;;;;;;;;28.00;24.75;;;;;22.15;48.29;101495.41;5096528;27;45460;-84
2021/06/09 08:11:45;;;;;;;;;29.00;25.75;;;;;22.23;47.94;101505.28;5096494;27;45820;-84
2021/06/09 08:14:14;;;;;;;;;27.25;25.75;;;;;22.35;48.23;101513.84;5077385;27;46625;-84
2021/06/09 08:16:40;;;;;;;;;28.25;25.50;;;;;22.40;47.62;101506.19;5095782;27;46191;-85
2021/06/09 08:19:07;;;;;;;;;23.75;22.75;;;;;22.44;47.81;101513.69;5096014;27;45505;-84
2021/06/09 08:21:33;;;;;;;;;23.50;21.75;;;;;22.49;47.99;101511.34;5096690;27;45800;-86
2021/06/09 08:23:59;;;;;;;;;23.00;21.50;;;;;22.40;47.51;101488.28;5095249;27;45629;-83
2021/06/09 08:26:26;;;;;;;;;25.00;23.00;;;;;22.46;47.98;101487.63;5094789;27;45597;-84
2021/06/09 08:28:54;;;;;;;;;23.00;22.25;;;;;22.63;47.61;101509.88;5095555;27;45699;-85
2021/06/09 08:31:23;;;;;;;;;22.50;19.50;;;;;22.68;47.56;101514.72;5095652;27;45668;-83
2021/06/09 08:33:50;;;;;;;;;19.00;19.00;;;;;22.72;47.01;101516.94;5095330;27;45956;-83
2021/06/09 08:36:17;;;;;;;;;19.00;18.50;;;;;22.67;47.18;101491.69;5076673;27;46162;-85
2021/06/09 08:42:06;;;;;;;;;14.50;14.00;;;;;22.85;47.25;101505.75;5096868;27;45601;-84
2021/06/09 08:44:37;;;;;;;;;16.75;11.50;;;;;22.88;46.66;101502.75;5095369;27;45658;-84
2021/06/09 08:47:04;;;;;;;;;13.00;12.00;;;;;22.86;46.53;101494.06;5095733;27;46471;-85
2021/06/09 08:49:29;;;;;;;;;11.50;11.50;;;;;22.67;46.07;101467.63;5076491;27;45720;-83
2021/06/09 08:51:55;;;;;;;;;14.25;12.75;;;;;22.97;46.34;101496.38;5077069;27;45513;-83
2021/06/09 08:54:23;;;;;;;;;13.50;12.00;;;;;22.81;46.02;101477.69;5077146;27;47356;-84
2021/06/09 08:56:50;;;;;;;;;12.25;10.75;;;;;23.04;45.79;101500.06;5079033;27;47541;-84
2021/06/09 08:59:16;;;;;;;;;16.00;16.00;;;;;23.00;45.39;101490.69;5100272;27;45715;-84
2021/06/09 09:01:42;;;;;;;;;11.50;11.00;;;;;22.99;45.82;101481.88;5080064;27;45962;-83
2021/06/09 09:04:08;;;;;;;;;18.75;13.00;;;;;22.98;45.55;101480.19;5079484;27;47508;-85
2021/06/09 09:06:34;;;;;;;;;11.25;10.25;;;;;23.14;45.27;101490.03;5098273;27;46307;-85
2021/06/09 09:12:21;;;;;;;;;11.00;11.00;;;;;23.12;44.52;101483.16;5098294;27;45672;-83
2021/06/09 09:14:46;;;;;;;;;11.00;11.00;;;;;23.11;45.03;101470.78;5098586;27;45763;-84
2021/06/09 09:17:13;;;;;;;;;10.00;10.00;;;;;23.28;44.69;101505.38;5078615;27;47241;-85
2021/06/09 09:19:41;;;;;;;;;12.25;11.75;;;;;23.41;44.32;101510.22;5097043;27;45541;-84
2021/06/09 09:22:11;;;;;;;;;9.75;9.50;;;;;23.45;43.75;101511.53;5097544;27;45540;-84
2021/06/09 09:24:41;;;;;;;;;9.00;9.00;;;;;23.48;44.18;101515.75;5095675;27;45757;-82
2021/06/09 09:27:07;;;;;;;;;7.00;7.00;;;;;23.40;43.88;101496.00;5098515;27;46414;-85
2021/06/09 09:29:33;;;;;;;;;7.75;6.75;;;;;23.35;43.39;101487.66;5101599;27;45658;-85
2021/06/09 09:32:09;;;;;;;;;8.75;7.00;;;;;23.56;43.19;101516.56;5101922;27;45548;-83
2021/06/09 09:34:48;;;;;;;;;10.00;8.00;;;;;23.60;43.45;101520.56;5100133;27;45526;-84
2021/06/09 09:37:24;;;;;;;;;9.75;9.25;;;;;23.63;43.39;101530.09;5099316;27;45537;-81
2021/06/09 09:40:18;;;;;;;;;10.00;9.25;;;;;23.60;43.01;101507.16;5099219;27;45617;-84
2021/06/09 09:42:47;;;;;;;;;11.50;10.75;;;;;23.42;42.97;101474.44;5097367;27;45648;-83
2021/06/09 09:45:32;;;;;;;;;7.50;7.50;;;;;23.73;43.13;101522.69;5098452;27;46402;-82
2021/06/09 09:48:14;;;;;;;;;9.25;8.75;;;;;23.77;42.92;101524.84;5100066;27;45851;-84
2021/06/09 09:50:46;;;;;;;;;11.00;9.00;;;;;23.56;42.52;101470.22;5096571;27;45854;-83
2021/06/09 09:53:21;;;;;;;;;10.50;10.00;;;;;23.68;42.66;101491.09;5096167;27;45612;-83
2021/06/09 09:56:01;;;;;;;;;10.00;9.25;;;;;23.92;42.61;101516.94;5094064;27;45983;-84
2021/06/09 09:58:29;;;;;;;;;12.00;11.50;;;;;23.91;41.95;101512.59;5095501;27;46114;-82
2021/06/09 10:01:25;;;;;;;;;10.00;9.00;;;;;23.96;41.87;101507.56;5097689;27;45813;-83
2021/06/09 10:03:54;;;;;;;;;11.00;10.00;;;;;24.03;42.02;101508.50;5001071;28;45705;-83
2021/06/09 10:06:21;;;;;;;;;11.25;10.75;;;;;24.07;42.06;101511.69;5016684;28;46521;-82
2021/06/09 10:08:47;;;;;;;;;9.00;9.00;;;;;24.08;41.82;101505.31;4999795;28;47155;-82
2021/06/09 10:11:14;;;;;;;;;8.00;8.00;;;;;24.08;41.84;101500.78;5016551;28;45637;-86
2021/06/09 10:13:40;;;;;;;;;8.75;8.75;;;;;24.06;41.40;101486.75;5016169;28;45675;-85
2021/06/09 10:16:26;;;;;;;;;12.75;10.75;;;;;24.25;41.29;101513.13;5015411;28;45681;-84
2021/06/09 10:19:07;;;;;;;;;9.00;8.75;;;;;24.22;41.41;101504.63;5015757;28;46257;-82
2021/06/09 10:21:42;;;;;;;;;8.25;8.00;;;;;24.20;41.64;101503.94;5015676;28;45726;-83
2021/06/09 10:24:09;;;;;;;;;10.00;9.00;;;;;24.37;41.56;101518.06;5006401;28;45815;-85
2021/06/09 10:26:35;;;;;;;;;9.00;9.00;;;;;24.36;41.09;101508.38;4996047;28;46417;-84
2021/06/09 10:29:07;;;;;;;;;11.00;10.50;;;;;24.42;41.18;101515.69;4978778;28;47352;-84
2021/06/09 10:31:41;;;;;;;;;11.75;11.25;;;;;24.34;40.80;101497.84;4981087;28;45648;-88
2021/06/09 10:34:06;;;;;;;;;10.25;10.00;;;;;24.38;40.66;101485.75;4981287;28;46013;-86
2021/06/09 10:36:34;;;;;;;;;10.00;9.50;;;;;24.46;40.95;101492.91;4996521;28;45583;-86
2021/06/09 10:39:01;;;;;;;;;10.50;9.75;;;;;24.60;40.75;101509.06;4980913;28;47551;-86
2021/06/09 10:41:39;;;;;;;;;8.50;8.50;;;;;24.63;40.91;101503.34;5086241;28;45650;-91
2021/06/09 10:44:05;;;;;;;;;9.75;8.00;;;;;24.51;40.25;101482.47;5084755;28;45499;-88
2021/06/09 10:46:38;;;;;;;;;8.00;8.00;;;;;24.67;40.34;101507.31;5061514;28;48147;-87
2021/06/09 10:49:05;;;;;;;;;9.00;8.00;;;;;24.56;40.13;101482.81;5045544;28;46854;-88
2021/06/09 10:51:32;;;;;;;;;10.00;9.25;;;;;24.74;39.96;101511.97;5062932;28;45712;-89
2021/06/09 10:54:00;;;;;;;;;12.75;10.00;;;;;24.76;40.63;101507.25;5060604;28;45606;-86
2021/06/09 10:56:26;;;;;;;;;8.00;8.00;;;;;24.82;40.29;101518.13;5062208;28;47614;-86
2021/06/09 10:58:52;;;;;;;;;12.25;11.00;;;;;24.72;39.85;101485.34;5066580;28;47351;-88
2021/06/09 11:01:25;;;;;;;;;9.00;9.00;;;;;24.83;40.05;101495.63;5090140;28;45437;-88
2021/06/09 11:03:56;;;;;;;;;8.75;7.50;;;;;24.94;39.83;101510.50;5093461;28;45428;-89
2021/06/09 11:06:35;;;;;;;;;5.25;5.25;;;;;24.85;39.89;101472.16;5043604;28;48035;-87
2021/06/09 11:09:32;;;;;;;;;6.00;6.00;;;;;24.80;40.13;101452.28;5071627;28;47072;-87
2021/06/09 11:12:25;;;;;;;;;8.00;7.00;;;;;24.86;39.64;101462.28;4971852;28;45712;-88
2021/06/09 11:15:07;;;;;;;;;8.50;7.50;;;;;25.13;39.52;101496.59;4966788;28;45726;-91
2021/06/09 11:17:39;;;;;;;;;8.75;8.00;;;;;24.77;39.61;101432.03;4967228;28;47554;-93
2021/06/09 11:20:26;;;;;;;;;7.00;6.00;;;;;25.01;39.71;101455.94;4965441;28;47305;-88
2021/06/09 11:26:24;;;;;;;;;9.00;8.25;;;;;25.32;38.98;101490.69;4985330;28;45921;-90
2021/06/09 11:28:50;;;;;;;;;8.00;7.00;;;;;25.32;39.04;101487.16;4962522;28;48024;-87
2021/06/09 11:31:27;;;;;;;;;8.00;8.00;;;;;24.98;38.73;101442.94;4966674;28;45881;-86
2021/06/09 11:34:02;;;;;;;;;7.00;7.00;;;;;25.37;38.77;101492.84;4969354;28;45284;-88
2021/06/09 11:36:29;;;;;;;;;7.75;7.75;;;;;25.33;38.25;101478.94;4970525;28;45352;-87
2021/06/09 11:42:16;;;;;;;;;8.25;7.25;;;;;25.28;38.10;101454.50;4984722;28;45859;-86
2021/06/09 11:44:42;;;;;;;;;6.00;6.00;;;;;25.45;37.83;101479.31;4950916;28;45745;-88
2021/06/09 11:47:23;;;;;;;;;8.00;8.00;;;;;25.48;38.21;101477.09;4967035;28;45793;-85
2021/06/09 11:49:50;;;;;;;;;7.00;7.00;;;;;25.47;38.61;101463.88;5081624;28;46705;-85
2021/06/09 11:52:18;;;;;;;;;7.75;7.75;;;;;25.53;37.60;101462.28;5062326;28;47365;-85
2021/06/09 11:58:15;;;;;;;;;5.75;5.75;;;;;25.77;36.69;101488.88;5079632;28;45671;-88
2021/06/09 12:01:07;;;;;;;;;7.50;6.75;;;;;25.82;36.27;101494.50;5061465;28;48288;-88
2021/06/09 12:03:33;;;;;;;;;8.50;7.75;;;;;25.85;36.72;101476.19;5058624;28;48214;-87
2021/06/09 12:06:17;;;;;;;;;7.25;6.25;;;;;25.86;36.53;101467.09;5060194;28;45773;-86
2021/06/09 12:08:44;;;;;;;;;8.75;8.00;;;;;25.94;36.61;101489.50;5078234;28;45496;-89
2021/06/09 12:11:10;;;;;;;;;7.25;7.25;;;;;25.96;36.37;101479.41;5064066;28;47000;-86
2021/06/09 12:13:40;;;;;;;;;9.00;7.75;;;;;25.70;36.45;101429.72;5064672;28;46663;-88
2021/06/09 12:16:14;;;;;;;;;7.25;7.00;;;;;25.87;36.61;101463.38;5064096;28;45902;-86
2021/06/09 12:18:39;;;;;;;;;6.75;6.75;;;;;25.88;36.32;101445.44;5063661;28;46017;-87
2021/06/09 12:21:12;;;;;;;;;8.00;7.25;;;;;25.78;36.17;101447.56;5067347;28;46079;-87
2021/06/09 12:23:54;;;;;;;;;9.00;8.25;;;;;26.04;36.70;101471.22;5063886;28;47536;-86
2021/06/09 12:26:21;;;;;;;;;9.00;8.00;;;;;26.07;36.71;101476.25;5078925;28;45700;-86
2021/06/09 12:28:46;;;;;;;;;7.25;6.25;;;;;25.98;36.50;101455.88;5088644;27;45999;-85
2021/06/09 12:31:16;;;;;;;;;7.00;7.00;;;;;26.12;36.39;101463.91;5085081;27;47167;-88
2021/06/09 12:33:42;;;;;;;;;6.00;6.00;;;;;25.78;35.43;101410.81;5103214;27;45533;-86
2021/06/09 12:36:14;;;;;;;;;7.25;7.25;;;;;26.02;35.98;101428.44;5087696;27;45664;-88
2021/06/09 12:38:41;;;;;;;;;6.00;6.00;;;;;26.04;35.79;101420.19;5090398;27;45602;-89
2021/06/09 12:41:11;;;;;;;;;7.50;6.50;;;;;26.33;35.70;101460.44;5083298;27;45777;-88